createdAt,value
2018-04-22T00:00:39.315Z,60.47
2018-04-22T00:01:45.860Z,60.66
2018-04-22T00:02:51.433Z,60.79
2018-04-22T00:03:57.199Z,60.81
2018-04-22T00:05:02.980Z,60.89
2018-04-22T00:06:08.742Z,60.91
2018-04-22T00:07:15.286Z,60.91
2018-04-22T00:08:21.171Z,60.96
2018-04-22T00:09:27.012Z,60.95
2018-04-22T00:10:32.778Z,60.99
2018-04-22T00:11:38.546Z,61.01
2018-04-22T00:12:44.326Z,60.96
2018-04-22T00:13:50.681Z,60.79
2018-04-22T00:14:57.226Z,60.70
2018-04-22T00:16:02.984Z,60.64
2018-04-22T00:17:08.767Z,60.63
2018-04-22T00:18:14.631Z,60.45
2018-04-22T00:19:20.419Z,60.17
2018-04-22T00:20:26.190Z,59.71
2018-04-22T00:21:31.961Z,59.41
2018-04-22T00:22:37.738Z,59.18
2018-04-22T00:23:44.295Z,58.95
2018-04-22T00:24:50.851Z,58.86
2018-04-22T00:25:57.384Z,58.93
2018-04-22T00:27:03.146Z,58.95
2018-04-22T00:28:09.675Z,59.13
2018-04-22T00:29:15.479Z,59.44
2018-04-22T00:30:21.271Z,59.70
2018-04-22T00:31:27.036Z,60.02
2018-04-22T00:32:33.371Z,60.40
2018-04-22T00:33:39.168Z,60.67
2018-04-22T00:34:44.943Z,60.90
2018-04-22T00:35:50.503Z,60.97
2018-04-22T00:36:57.041Z,61.06
2018-04-22T00:38:02.888Z,61.11
2018-04-22T00:39:08.668Z,61.20
2018-04-22T00:40:15.295Z,61.31
2018-04-22T00:41:21.084Z,61.36
2018-04-22T00:42:26.858Z,61.41
2018-04-22T00:43:32.644Z,61.37
2018-04-22T00:44:39.384Z,61.20
2018-04-22T00:45:45.142Z,61.07
2018-04-22T00:46:50.960Z,60.94
2018-04-22T00:47:56.723Z,60.85
2018-04-22T00:49:03.263Z,60.58
2018-04-22T00:50:09.027Z,60.31
2018-04-22T00:51:15.554Z,60.14
2018-04-22T00:52:21.120Z,59.98
2018-04-22T00:53:26.658Z,59.98
2018-04-22T00:54:33.200Z,59.96
2018-04-22T00:55:38.972Z,59.96
2018-04-22T00:56:45.510Z,60.07
2018-04-22T00:57:52.063Z,60.20
2018-04-22T00:58:57.852Z,60.25
2018-04-22T01:00:03.618Z,60.27
2018-04-22T01:01:09.411Z,60.29
2018-04-22T01:02:15.191Z,60.31
2018-04-22T01:03:20.970Z,60.27
2018-04-22T01:04:26.739Z,60.22
2018-04-22T01:05:32.522Z,60.17
2018-04-22T01:06:38.292Z,60.14
2018-04-22T01:07:44.069Z,60.00
2018-04-22T01:08:49.839Z,59.87
2018-04-22T01:09:55.646Z,59.82
2018-04-22T01:11:02.188Z,59.78
2018-04-22T01:12:07.717Z,59.79
2018-04-22T01:13:13.505Z,59.89
2018-04-22T01:14:20.036Z,59.85
2018-04-22T01:15:25.807Z,59.81
2018-04-22T01:16:32.347Z,59.75
2018-04-22T01:17:38.884Z,59.71
2018-04-22T01:18:46.229Z,59.74
2018-04-22T01:19:51.986Z,59.71
2018-04-22T01:20:57.755Z,59.69
2018-04-22T01:22:03.517Z,59.67
2018-04-22T01:23:10.047Z,59.78
2018-04-22T01:24:15.854Z,59.80
2018-04-22T01:25:21.639Z,59.70
2018-04-22T01:26:28.191Z,59.65
2018-04-22T01:27:33.968Z,59.65
2018-04-22T01:28:40.499Z,59.51
2018-04-22T01:29:46.300Z,59.50
2018-04-22T01:30:52.075Z,59.53
2018-04-22T01:31:57.853Z,59.58
2018-04-22T01:33:04.383Z,59.58
2018-04-22T01:34:10.162Z,59.61
2018-04-22T01:35:16.719Z,59.52
2018-04-22T01:36:23.254Z,59.47
2018-04-22T01:37:29.026Z,59.46
2018-04-22T01:38:34.818Z,59.42
2018-04-22T01:39:40.603Z,59.35
2018-04-22T01:40:47.165Z,59.33
2018-04-22T01:41:53.707Z,59.32
2018-04-22T01:42:59.467Z,59.33
2018-04-22T01:44:06.016Z,59.33
2018-04-22T01:45:12.574Z,59.36
2018-04-22T01:46:19.134Z,59.39
2018-04-22T01:47:25.686Z,59.42
2018-04-22T01:48:32.224Z,59.43
2018-04-22T01:49:37.996Z,59.42
2018-04-22T01:50:44.535Z,59.44
2018-04-22T01:51:51.101Z,59.46
2018-04-22T01:52:56.875Z,59.51
2018-04-22T01:54:03.871Z,59.51
2018-04-22T01:55:09.645Z,59.58
2018-04-22T01:56:15.421Z,59.63
2018-04-22T01:57:21.991Z,59.69
2018-04-22T01:58:27.778Z,59.63
2018-04-22T01:59:33.541Z,59.76
2018-04-22T02:00:39.306Z,59.88
2018-04-22T02:01:45.839Z,59.92
2018-04-22T02:02:51.642Z,59.96
2018-04-22T02:03:57.435Z,60.00
2018-04-22T02:05:03.231Z,60.10
2018-04-22T02:06:08.773Z,60.09
2018-04-22T02:07:14.544Z,60.30
2018-04-22T02:08:21.612Z,60.28
2018-04-22T02:09:27.167Z,60.23
2018-04-22T02:10:32.932Z,60.19
2018-04-22T02:11:38.703Z,60.18
2018-04-22T02:12:44.476Z,60.21
2018-04-22T02:13:51.831Z,60.20
2018-04-22T02:14:57.619Z,60.20
2018-04-22T02:16:03.387Z,60.21
2018-04-22T02:17:09.167Z,60.21
2018-04-22T02:18:14.944Z,60.24
2018-04-22T02:19:21.503Z,60.29
2018-04-22T02:20:28.039Z,60.34
2018-04-22T02:21:35.319Z,60.37
2018-04-22T02:22:41.120Z,60.49
2018-04-22T02:23:46.891Z,60.63
2018-04-22T02:24:52.682Z,60.61
2018-04-22T02:25:59.218Z,60.65
2018-04-22T02:27:04.656Z,60.63
2018-04-22T02:28:10.454Z,60.62
2018-04-22T02:29:16.396Z,60.56
2018-04-22T02:30:22.191Z,60.54
2018-04-22T02:31:28.728Z,60.59
2018-04-22T02:32:34.508Z,60.63
2018-04-22T02:33:41.035Z,60.64
2018-04-22T02:34:46.803Z,60.69
2018-04-22T02:35:53.367Z,60.75
2018-04-22T02:36:59.903Z,60.74
2018-04-22T02:38:05.678Z,60.72
2018-04-22T02:39:11.478Z,60.77
2018-04-22T02:40:17.243Z,60.79
2018-04-22T02:41:23.824Z,60.86
2018-04-22T02:42:30.355Z,60.90
2018-04-22T02:43:36.939Z,60.92
2018-04-22T02:44:42.874Z,61.14
2018-04-22T02:45:49.416Z,61.20
2018-04-22T02:46:55.208Z,61.30
2018-04-22T02:48:00.969Z,61.27
2018-04-22T02:49:06.779Z,61.32
2018-04-22T02:50:12.555Z,61.41
2018-04-22T02:51:17.883Z,61.50
2018-04-22T02:52:23.675Z,61.56
2018-04-22T02:53:30.218Z,61.68
2018-04-22T02:54:35.994Z,61.72
2018-04-22T02:55:42.518Z,61.72
2018-04-22T02:56:48.299Z,61.78
2018-04-22T02:57:54.078Z,61.83
2018-04-22T02:59:00.943Z,61.83
2018-04-22T03:00:06.701Z,61.83
2018-04-22T03:01:12.480Z,61.84
2018-04-22T03:02:19.043Z,61.89
2018-04-22T03:03:25.599Z,61.94
2018-04-22T03:04:32.135Z,61.95
2018-04-22T03:05:37.906Z,61.98
2018-04-22T03:06:43.688Z,62.00
2018-04-22T03:07:49.459Z,62.00
2018-04-22T03:08:55.555Z,62.01
2018-04-22T03:10:01.328Z,62.03
2018-04-22T03:11:07.094Z,62.09
2018-04-22T03:12:12.859Z,62.10
2018-04-22T03:13:18.640Z,62.13
2018-04-22T03:14:24.439Z,62.19
2018-04-22T03:15:30.971Z,62.19
2018-04-22T03:16:36.738Z,62.17
2018-04-22T03:17:42.298Z,62.21
2018-04-22T03:18:48.080Z,62.19
2018-04-22T03:19:53.863Z,62.18
2018-04-22T03:21:00.417Z,62.23
2018-04-22T03:22:06.948Z,62.22
2018-04-22T03:23:12.795Z,62.22
2018-04-22T03:24:18.563Z,62.24
2018-04-22T03:25:25.148Z,62.28
2018-04-22T03:26:30.923Z,62.25
2018-04-22T03:27:36.697Z,62.17
2018-04-22T03:28:42.473Z,62.14
2018-04-22T03:29:48.239Z,62.20
2018-04-22T03:30:54.035Z,62.20
2018-04-22T03:32:00.574Z,62.16
2018-04-22T03:33:06.339Z,62.11
2018-04-22T03:34:12.882Z,62.05
2018-04-22T03:35:18.655Z,61.99
2018-04-22T03:36:24.451Z,61.91
2018-04-22T03:37:30.247Z,61.89
2018-04-22T03:38:36.028Z,61.89
2018-04-22T03:39:41.833Z,61.89
2018-04-22T03:40:47.658Z,61.88
2018-04-22T03:41:54.441Z,61.92
2018-04-22T03:43:00.260Z,61.98
2018-04-22T03:44:06.821Z,62.03
2018-04-22T03:45:13.408Z,62.05
2018-04-22T03:46:19.180Z,62.09
2018-04-22T03:47:24.974Z,62.19
2018-04-22T03:48:31.512Z,62.23
2018-04-22T03:49:37.283Z,62.23
2018-04-22T03:50:43.076Z,62.20
2018-04-22T03:51:48.848Z,62.18
2018-04-22T03:52:55.413Z,62.16
2018-04-22T03:54:01.960Z,62.13
2018-04-22T03:55:07.727Z,62.17
2018-04-22T03:56:13.506Z,62.20
2018-04-22T03:57:19.275Z,62.24
2018-04-22T03:58:25.081Z,62.26
2018-04-22T03:59:30.857Z,62.34
2018-04-22T04:00:36.650Z,62.37
2018-04-22T04:01:42.427Z,62.34
2018-04-22T04:02:48.388Z,62.26
2018-04-22T04:03:54.182Z,62.21
2018-04-22T04:05:00.051Z,62.18
2018-04-22T04:06:05.817Z,62.17
2018-04-22T04:07:11.587Z,62.23
2018-04-22T04:08:18.118Z,62.26
2018-04-22T04:09:23.915Z,62.26
2018-04-22T04:10:29.688Z,62.26
2018-04-22T04:11:35.539Z,62.25
2018-04-22T04:12:41.311Z,62.23
2018-04-22T04:13:47.847Z,62.29
2018-04-22T04:14:53.650Z,62.31
2018-04-22T04:15:59.419Z,62.32
2018-04-22T04:17:05.215Z,62.36
2018-04-22T04:20:30.787Z,62.40
2018-04-22T04:21:53.517Z,62.45
2018-04-22T04:22:59.059Z,62.46
2018-04-22T04:26:31.574Z,62.48
2018-04-22T04:27:49.740Z,62.48
2018-04-22T04:28:55.520Z,62.39
2018-04-22T04:30:01.293Z,62.41
2018-04-22T04:31:07.513Z,62.38
2018-04-22T04:32:13.282Z,62.38
2018-04-22T04:33:19.082Z,62.37
2018-04-22T04:34:24.866Z,62.32
2018-04-22T04:35:31.398Z,62.23
2018-04-22T04:36:37.989Z,62.14
2018-04-22T04:37:44.536Z,62.06
2018-04-22T04:38:51.079Z,62.00
2018-04-22T04:39:56.863Z,61.85
2018-04-22T04:41:03.404Z,61.99
2018-04-22T04:42:09.964Z,61.91
2018-04-22T04:43:15.738Z,61.79
2018-04-22T04:44:21.503Z,61.72
2018-04-22T04:45:27.275Z,61.62
2018-04-22T04:46:33.054Z,61.49
2018-04-22T04:47:39.627Z,61.36
2018-04-22T04:48:45.395Z,61.26
2018-04-22T04:49:51.175Z,61.17
2018-04-22T04:50:56.964Z,61.10
2018-04-22T04:52:02.735Z,61.07
2018-04-22T04:53:08.534Z,61.04
2018-04-22T04:54:14.082Z,61.04
2018-04-22T04:55:20.056Z,60.97
2018-04-22T04:56:25.863Z,61.02
2018-04-22T04:57:31.647Z,60.97
2018-04-22T04:58:37.447Z,60.91
2018-04-22T04:59:42.991Z,60.86
2018-04-22T05:00:48.780Z,60.63
2018-04-22T05:01:54.555Z,60.41
2018-04-22T05:03:00.328Z,60.16
2018-04-22T05:04:05.855Z,59.96
2018-04-22T05:05:11.627Z,59.89
2018-04-22T05:06:17.405Z,59.71
2018-04-22T05:07:23.939Z,59.67
2018-04-22T05:08:29.721Z,59.64
2018-04-22T05:09:35.526Z,59.51
2018-04-22T05:10:42.820Z,59.35
2018-04-22T05:11:49.383Z,59.10
2018-04-22T05:12:55.912Z,58.91
2018-04-22T05:14:01.770Z,58.75
2018-04-22T05:15:07.567Z,58.65
2018-04-22T05:16:13.343Z,58.62
2018-04-22T05:17:19.109Z,58.47
2018-04-22T05:18:25.414Z,58.38
2018-04-22T05:19:31.195Z,58.31
2018-04-22T05:20:36.999Z,58.29
2018-04-22T05:21:42.761Z,58.25
2018-04-22T05:22:48.550Z,58.26
2018-04-22T05:23:55.082Z,58.25
2018-04-22T05:25:00.847Z,58.09
2018-04-22T05:26:07.404Z,57.83
2018-04-22T05:27:13.948Z,57.80
2018-04-22T05:28:20.483Z,57.86
2018-04-22T05:29:26.250Z,57.83
2018-04-22T05:30:32.999Z,57.65
2018-04-22T05:31:38.798Z,57.46
2018-04-22T05:32:44.581Z,57.44
2018-04-22T05:33:50.433Z,57.36
2018-04-22T05:34:56.210Z,56.94
2018-04-22T05:36:02.743Z,56.84
2018-04-22T05:37:08.562Z,56.82
2018-04-22T05:38:14.360Z,56.71
2018-04-22T05:39:20.130Z,56.67
2018-04-22T05:40:25.907Z,56.75
2018-04-22T05:41:31.700Z,56.95
2018-04-22T05:42:37.543Z,57.12
2018-04-22T05:43:43.522Z,57.24
2018-04-22T05:44:49.325Z,57.23
2018-04-22T05:45:55.094Z,57.28
2018-04-22T05:47:00.916Z,57.25
2018-04-22T05:48:06.753Z,57.22
2018-04-22T05:49:12.534Z,57.21
2018-04-22T05:50:18.385Z,57.05
2018-04-22T05:51:24.253Z,56.97
2018-04-22T05:52:30.792Z,56.86
2018-04-22T05:53:36.631Z,56.71
2018-04-22T05:54:42.421Z,56.71
2018-04-22T05:55:48.191Z,56.48
2018-04-22T05:56:53.958Z,56.35
2018-04-22T05:57:59.822Z,56.33
2018-04-22T05:59:06.417Z,56.34
2018-04-22T06:00:12.298Z,56.27
2018-04-22T06:01:18.077Z,56.11
2018-04-22T06:02:24.701Z,55.91
2018-04-22T06:03:30.470Z,55.90
2018-04-22T06:04:37.041Z,55.81
2018-04-22T06:05:43.579Z,55.82
2018-04-22T06:06:50.860Z,55.66
2018-04-22T06:07:56.295Z,55.52
2018-04-22T06:09:02.055Z,55.43
2018-04-22T06:10:08.822Z,55.30
2018-04-22T06:11:15.452Z,55.19
2018-04-22T06:12:21.219Z,55.20
2018-04-22T06:13:27.765Z,54.96
2018-04-22T06:14:33.529Z,54.77
2018-04-22T06:15:40.102Z,54.62
2018-04-22T06:16:45.869Z,54.52
2018-04-22T06:17:51.649Z,54.40
2018-04-22T06:18:58.932Z,54.25
2018-04-22T06:20:04.720Z,54.14
2018-04-22T06:21:10.865Z,54.01
2018-04-22T06:22:18.918Z,53.86
2018-04-22T06:23:26.837Z,53.76
2018-04-22T06:24:33.945Z,53.68
2018-04-22T06:25:40.822Z,53.57
2018-04-22T06:26:47.869Z,53.57
2018-04-22T06:27:53.887Z,53.52
2018-04-22T06:29:00.066Z,53.52
2018-04-22T06:30:05.909Z,53.44
2018-04-22T06:31:11.958Z,53.36
2018-04-22T06:32:18.028Z,53.21
2018-04-22T06:33:24.169Z,53.18
2018-04-22T06:34:30.212Z,53.00
2018-04-22T06:35:36.130Z,52.83
2018-04-22T06:36:42.906Z,52.74
2018-04-22T06:37:48.947Z,52.71
2018-04-22T06:38:55.102Z,52.52
2018-04-22T06:40:01.264Z,52.32
2018-04-22T06:41:07.220Z,52.14
2018-04-22T06:42:13.259Z,52.00
2018-04-22T06:43:19.206Z,51.84
2018-04-22T06:44:25.766Z,51.58
2018-04-22T06:45:31.818Z,51.29
2018-04-22T06:46:38.680Z,50.73
2018-04-22T06:47:44.903Z,49.93
2018-04-22T06:48:51.764Z,48.87
2018-04-22T06:49:58.632Z,47.74
2018-04-22T06:51:04.779Z,46.39
2018-04-22T06:52:10.664Z,44.98
2018-04-22T06:53:16.637Z,43.74
2018-04-22T06:54:24.222Z,42.50
2018-04-22T06:55:31.269Z,41.32
2018-04-22T06:56:37.265Z,39.75
2018-04-22T06:57:44.082Z,38.54
2018-04-22T06:58:50.155Z,37.85
2018-04-22T06:59:56.250Z,37.23
2018-04-22T07:01:03.068Z,36.19
2018-04-22T07:02:08.988Z,35.42
2018-04-22T07:03:15.144Z,34.84
2018-04-22T07:04:21.282Z,34.15
2018-04-22T07:05:28.060Z,33.60
2018-04-22T07:06:34.617Z,32.83
2018-04-22T07:07:40.668Z,32.23
2018-04-22T07:08:46.766Z,31.89
2018-04-22T07:09:53.890Z,31.80
2018-04-22T07:10:59.933Z,31.61
2018-04-22T07:12:06.134Z,31.42
2018-04-22T07:13:12.133Z,31.12
2018-04-22T07:14:18.126Z,30.77
2018-04-22T07:15:24.225Z,30.34
2018-04-22T07:16:30.286Z,30.44
2018-04-22T07:17:36.358Z,30.18
2018-04-22T07:18:42.406Z,30.32
2018-04-22T07:19:49.878Z,30.38
2018-04-22T07:20:55.907Z,30.27
2018-04-22T07:22:02.686Z,30.15
2018-04-22T07:23:08.719Z,30.07
2018-04-22T07:24:14.820Z,29.78
2018-04-22T07:25:21.023Z,29.42
2018-04-22T07:26:27.173Z,29.03
2018-04-22T07:27:33.221Z,28.84
2018-04-22T07:28:39.377Z,28.61
2018-04-22T07:29:45.634Z,28.11
2018-04-22T07:30:51.690Z,28.15
2018-04-22T07:31:57.721Z,28.20
2018-04-22T07:33:03.872Z,28.14
2018-04-22T07:34:09.809Z,27.97
2018-04-22T07:35:16.290Z,27.71
2018-04-22T07:36:22.230Z,27.47
2018-04-22T07:37:28.276Z,27.14
2018-04-22T07:38:34.167Z,26.66
2018-04-22T07:39:40.059Z,26.77
2018-04-22T07:40:45.922Z,26.47
2018-04-22T07:41:51.907Z,26.49
2018-04-22T07:42:57.687Z,26.14
2018-04-22T07:44:03.463Z,25.97
2018-04-22T07:45:11.807Z,25.75
2018-04-22T07:46:17.637Z,25.76
2018-04-22T07:47:23.527Z,25.62
2018-04-22T07:48:30.231Z,25.19
2018-04-22T07:49:37.549Z,24.59
2018-04-22T07:50:44.105Z,24.41
2018-04-22T07:51:50.755Z,24.49
2018-04-22T07:52:56.733Z,24.59
2018-04-22T07:54:02.788Z,24.03
2018-04-22T07:55:08.767Z,23.55
2018-04-22T07:56:14.984Z,23.42
2018-04-22T07:57:20.976Z,23.43
2018-04-22T07:58:27.685Z,23.70
2018-04-22T07:59:33.726Z,23.97
2018-04-22T08:00:39.758Z,24.11
2018-04-22T08:01:45.740Z,23.64
2018-04-22T08:02:51.588Z,23.23
2018-04-22T08:03:57.412Z,23.03
2018-04-22T08:05:03.015Z,22.61
2018-04-22T08:06:08.783Z,22.42
2018-04-22T08:07:15.529Z,22.24
2018-04-22T08:08:22.889Z,22.27
2018-04-22T08:09:28.689Z,22.41
2018-04-22T08:10:34.455Z,22.72
2018-04-22T08:11:40.227Z,23.00
2018-04-22T08:12:46.023Z,22.70
2018-04-22T08:13:51.805Z,22.82
2018-04-22T08:14:57.397Z,22.94
2018-04-22T08:16:03.190Z,22.89
2018-04-22T08:17:09.321Z,22.91
2018-04-22T08:18:15.399Z,22.89
2018-04-22T08:19:21.165Z,23.04
2018-04-22T08:20:26.965Z,23.14
2018-04-22T08:21:32.735Z,23.15
2018-04-22T08:22:39.321Z,22.92
2018-04-22T08:23:45.102Z,22.35
2018-04-22T08:24:51.077Z,22.11
2018-04-22T08:25:57.720Z,21.51
2018-04-22T08:27:03.513Z,20.99
2018-04-22T08:28:09.287Z,20.87
2018-04-22T08:29:15.070Z,21.20
2018-04-22T08:30:21.697Z,21.33
2018-04-22T08:31:28.878Z,20.92
2018-04-22T08:32:34.755Z,20.66
2018-04-22T08:33:40.571Z,20.38
2018-04-22T08:34:46.161Z,20.17
2018-04-22T08:35:52.464Z,20.23
2018-04-22T08:36:58.510Z,20.35
2018-04-22T08:38:04.533Z,20.05
2018-04-22T08:39:10.481Z,20.05
2018-04-22T08:40:16.542Z,20.10
2018-04-22T08:41:23.340Z,20.43
2018-04-22T08:42:29.994Z,20.14
2018-04-22T08:43:36.647Z,20.48
2018-04-22T08:44:42.443Z,20.49
2018-04-22T08:45:49.107Z,20.68
2018-04-22T08:46:55.460Z,20.70
2018-04-22T08:48:02.505Z,20.56
2018-04-22T08:49:09.897Z,20.38
2018-04-22T08:50:16.627Z,20.71
2018-04-22T08:51:22.602Z,20.76
2018-04-22T08:52:29.236Z,20.96
2018-04-22T08:53:34.854Z,21.57
2018-04-22T08:54:40.661Z,21.91
2018-04-22T08:55:46.640Z,22.40
2018-04-22T08:56:53.428Z,22.10
2018-04-22T08:58:00.183Z,21.99
2018-04-22T08:59:07.392Z,22.33
2018-04-22T09:00:13.266Z,22.62
2018-04-22T09:01:19.169Z,22.58
2018-04-22T09:02:27.552Z,22.49
2018-04-22T09:03:33.395Z,22.61
2018-04-22T09:04:39.382Z,22.17
2018-04-22T09:05:46.161Z,21.79
2018-04-22T09:06:52.685Z,21.72
2018-04-22T09:07:59.286Z,21.68
2018-04-22T09:09:04.939Z,22.11
2018-04-22T09:10:10.992Z,22.59
2018-04-22T09:11:17.552Z,22.81
2018-04-22T09:12:24.069Z,23.13
2018-04-22T09:13:30.779Z,23.16
2018-04-22T09:14:36.727Z,23.03
2018-04-22T09:15:45.282Z,22.68
2018-04-22T09:16:51.939Z,22.54
2018-04-22T09:17:58.621Z,22.48
2018-04-22T09:19:04.426Z,22.69
2018-04-22T09:20:12.799Z,22.76
2018-04-22T09:21:18.883Z,23.08
2018-04-22T09:22:25.573Z,23.41
2018-04-22T09:23:33.355Z,23.82
2018-04-22T09:24:39.582Z,24.17
2018-04-22T09:25:46.355Z,24.53
2018-04-22T09:26:54.679Z,24.73
2018-04-22T09:28:00.698Z,24.93
2018-04-22T09:29:07.726Z,24.69
2018-04-22T09:30:13.873Z,24.70
2018-04-22T09:31:20.545Z,24.68
2018-04-22T09:32:26.851Z,25.15
2018-04-22T09:33:32.853Z,25.25
2018-04-22T09:34:39.583Z,25.72
2018-04-22T09:35:45.517Z,26.14
2018-04-22T09:36:52.569Z,25.56
2018-04-22T09:37:58.514Z,25.11
2018-04-22T09:39:04.571Z,24.80
2018-04-22T09:40:10.441Z,24.38
2018-04-22T09:41:16.337Z,24.10
2018-04-22T09:42:22.242Z,23.79
2018-04-22T09:43:28.019Z,23.82
2018-04-22T09:44:35.492Z,24.01
2018-04-22T09:45:43.056Z,24.51
2018-04-22T09:46:49.836Z,24.50
2018-04-22T09:47:56.503Z,24.25
2018-04-22T09:49:02.133Z,24.16
2018-04-22T09:50:08.806Z,24.24
2018-04-22T09:51:15.666Z,24.82
2018-04-22T09:52:22.547Z,24.35
2018-04-22T09:53:30.127Z,24.33
2018-04-22T09:54:37.005Z,24.55
2018-04-22T09:55:42.892Z,24.45
2018-04-22T09:56:48.881Z,24.53
2018-04-22T09:57:55.591Z,24.71
2018-04-22T09:59:01.731Z,24.94
2018-04-22T10:00:09.592Z,25.32
2018-04-22T10:01:20.509Z,25.71
2018-04-22T10:02:31.720Z,25.53
2018-04-22T10:03:40.986Z,25.56
2018-04-22T10:04:47.485Z,25.70
2018-04-22T10:05:54.136Z,25.64
2018-04-22T10:07:00.122Z,25.43
2018-04-22T10:08:05.847Z,25.12
2018-04-22T10:09:11.845Z,24.85
2018-04-22T10:10:17.770Z,24.59
2018-04-22T10:11:24.289Z,24.67
2018-04-22T10:12:30.127Z,25.26
2018-04-22T10:13:35.973Z,25.81
2018-04-22T10:14:42.017Z,26.20
2018-04-22T10:15:48.716Z,26.43
2018-04-22T10:16:54.539Z,26.86
2018-04-22T10:18:02.713Z,27.10
2018-04-22T10:19:11.736Z,27.17
2018-04-22T10:20:18.586Z,27.65
2018-04-22T10:21:25.055Z,28.70
2018-04-22T10:22:31.919Z,28.92
2018-04-22T10:23:40.934Z,29.13
2018-04-22T10:24:48.409Z,29.72
2018-04-22T10:25:54.275Z,29.87
2018-04-22T10:27:01.816Z,29.95
2018-04-22T10:28:07.636Z,30.04
2018-04-22T10:29:16.649Z,30.07
2018-04-22T10:30:24.046Z,30.38
2018-04-22T10:31:30.472Z,30.57
2018-04-22T10:32:37.071Z,30.57
2018-04-22T10:33:43.510Z,30.78
2018-04-22T10:34:49.308Z,30.89
2018-04-22T10:35:55.969Z,30.86
2018-04-22T10:37:01.515Z,30.80
2018-04-22T10:38:07.415Z,30.74
2018-04-22T10:39:13.207Z,30.77
2018-04-22T10:40:19.096Z,30.80
2018-04-22T10:41:26.323Z,30.88
2018-04-22T10:42:32.794Z,31.30
2018-04-22T10:43:39.396Z,31.56
2018-04-22T10:44:46.037Z,32.01
2018-04-22T10:45:51.944Z,32.55
2018-04-22T10:46:57.907Z,32.89
2018-04-22T10:48:03.871Z,33.67
2018-04-22T10:49:09.775Z,33.70
2018-04-22T10:50:15.765Z,33.88
2018-04-22T10:51:22.518Z,34.19
2018-04-22T10:52:29.277Z,34.38
2018-04-22T10:53:36.038Z,34.99
2018-04-22T10:54:42.822Z,35.80
2018-04-22T10:55:49.997Z,36.30
2018-04-22T10:56:57.603Z,36.45
2018-04-22T10:58:03.966Z,36.42
2018-04-22T10:59:10.891Z,36.44
2018-04-22T11:00:17.152Z,36.59
2018-04-22T11:01:23.910Z,37.12
2018-04-22T11:02:29.846Z,37.40
2018-04-22T11:03:37.490Z,37.71
2018-04-22T11:04:43.470Z,37.95
2018-04-22T11:05:49.531Z,38.42
2018-04-22T11:06:56.278Z,38.28
2018-04-22T11:08:02.232Z,37.99
2018-04-22T11:09:08.042Z,38.11
2018-04-22T11:10:14.078Z,37.96
2018-04-22T11:11:20.198Z,37.58
2018-04-22T11:12:26.484Z,37.35
2018-04-22T11:13:32.526Z,37.36
2018-04-22T11:14:38.597Z,37.67
2018-04-22T11:15:44.631Z,37.52
2018-04-22T11:16:50.738Z,37.80
2018-04-22T11:17:57.596Z,38.49
2018-04-22T11:19:03.682Z,38.80
2018-04-22T11:20:10.661Z,38.94
2018-04-22T11:21:16.724Z,38.95
2018-04-22T11:22:23.853Z,38.87
2018-04-22T11:23:29.750Z,38.54
2018-04-22T11:24:36.955Z,37.93
2018-04-22T11:25:42.884Z,37.17
2018-04-22T11:26:48.898Z,36.89
2018-04-22T11:27:55.577Z,36.82
2018-04-22T11:29:01.375Z,37.10
2018-04-22T11:30:07.946Z,37.32
2018-04-22T11:31:13.915Z,36.28
2018-04-22T11:32:19.927Z,36.20
2018-04-22T11:33:27.358Z,36.33
2018-04-22T11:34:33.446Z,36.62
2018-04-22T11:35:41.283Z,36.37
2018-04-22T11:36:48.213Z,36.10
2018-04-22T11:37:54.834Z,35.68
2018-04-22T11:39:03.461Z,35.38
2018-04-22T11:40:09.605Z,34.60
2018-04-22T11:41:16.291Z,34.53
2018-04-22T11:42:24.600Z,34.71
2018-04-22T11:43:30.571Z,35.05
2018-04-22T11:44:37.520Z,35.59
2018-04-22T11:45:44.169Z,35.62
2018-04-22T11:46:50.750Z,35.43
2018-04-22T11:47:56.659Z,33.65
2018-04-22T11:49:02.875Z,33.37
2018-04-22T11:50:08.882Z,33.52
2018-04-22T11:51:15.611Z,33.95
2018-04-22T11:52:21.490Z,33.80
2018-04-22T11:53:28.107Z,34.57
2018-04-22T11:54:34.099Z,34.17
2018-04-22T11:55:41.563Z,32.48
2018-04-22T11:56:47.365Z,33.12
2018-04-22T11:57:53.365Z,33.36
2018-04-22T11:59:00.095Z,34.23
2018-04-22T12:00:06.947Z,34.89
2018-04-22T12:01:13.926Z,35.16
2018-04-22T12:02:21.668Z,35.20
2018-04-22T12:03:28.192Z,34.98
2018-04-22T12:04:34.570Z,34.91
2018-04-22T12:05:41.239Z,34.77
2018-04-22T12:06:47.939Z,34.73
2018-04-22T12:07:55.017Z,34.62
2018-04-22T12:09:01.308Z,34.49
2018-04-22T12:10:08.165Z,34.39
2018-04-22T12:11:14.080Z,34.41
2018-04-22T12:12:20.030Z,34.53
2018-04-22T12:13:25.971Z,34.54
2018-04-22T12:14:31.912Z,34.79
2018-04-22T12:15:37.902Z,33.22
2018-04-22T12:16:43.823Z,33.02
2018-04-22T12:17:49.712Z,32.66
2018-04-22T12:18:55.777Z,34.16
2018-04-22T12:20:02.162Z,34.75
2018-04-22T12:21:08.090Z,35.00
2018-04-22T12:22:14.054Z,35.25
2018-04-22T12:23:20.017Z,35.75
2018-04-22T12:24:25.889Z,35.84
2018-04-22T12:25:31.728Z,35.83
2018-04-22T12:26:37.750Z,35.61
2018-04-22T12:27:43.619Z,35.21
2018-04-22T12:28:49.530Z,35.32
2018-04-22T12:29:55.466Z,35.45
2018-04-22T12:31:02.611Z,35.06
2018-04-22T12:32:10.700Z,34.73
2018-04-22T12:33:18.373Z,34.73
2018-04-22T12:34:24.940Z,34.53
2018-04-22T12:35:30.900Z,33.51
2018-04-22T12:36:37.575Z,33.10
2018-04-22T12:37:44.443Z,33.94
2018-04-22T12:38:51.375Z,33.99
2018-04-22T12:39:57.192Z,33.88
2018-04-22T12:41:03.120Z,33.69
2018-04-22T12:42:09.912Z,33.81
2018-04-22T12:43:15.808Z,33.70
2018-04-22T12:44:22.764Z,33.63
2018-04-22T12:45:29.321Z,33.58
2018-04-22T12:46:35.234Z,33.60
2018-04-22T12:47:41.134Z,33.73
2018-04-22T12:48:47.073Z,33.74
2018-04-22T12:49:53.721Z,33.89
2018-04-22T12:50:59.539Z,33.84
2018-04-22T12:52:05.351Z,34.02
2018-04-22T12:53:11.206Z,34.30
2018-04-22T12:54:17.068Z,34.28
2018-04-22T12:55:22.880Z,34.44
2018-04-22T12:56:29.793Z,34.77
2018-04-22T12:57:36.587Z,34.80
2018-04-22T12:58:45.184Z,34.51
2018-04-22T12:59:51.065Z,34.72
2018-04-22T13:00:56.868Z,34.92
2018-04-22T13:02:03.416Z,34.98
2018-04-22T13:03:09.265Z,35.38
2018-04-22T13:04:15.818Z,35.68
2018-04-22T13:05:21.602Z,35.57
2018-04-22T13:06:27.644Z,35.62
2018-04-22T13:07:33.581Z,35.65
2018-04-22T13:08:40.132Z,35.59
2018-04-22T13:09:46.913Z,35.95
2018-04-22T13:10:54.607Z,36.04
2018-04-22T13:12:00.686Z,35.98
2018-04-22T13:13:08.055Z,35.85
2018-04-22T13:14:14.425Z,35.75
2018-04-22T13:15:22.371Z,35.61
2018-04-22T13:16:28.466Z,35.60
2018-04-22T13:17:37.357Z,35.57
2018-04-22T13:18:43.411Z,35.76
2018-04-22T13:19:50.369Z,35.79
2018-04-22T13:20:56.960Z,35.65
2018-04-22T13:22:03.728Z,35.73
2018-04-22T13:23:09.563Z,36.13
2018-04-22T13:24:20.535Z,36.12
2018-04-22T13:25:27.386Z,36.05
2018-04-22T13:26:33.570Z,35.98
2018-04-22T13:27:39.493Z,35.91
2018-04-22T13:28:46.901Z,35.73
2018-04-22T13:29:54.347Z,35.51
2018-04-22T13:31:00.764Z,35.33
2018-04-22T13:32:06.697Z,35.72
2018-04-22T13:33:13.407Z,35.98
2018-04-22T13:34:19.543Z,36.21
2018-04-22T13:35:25.702Z,36.23
2018-04-22T13:36:32.617Z,36.34
2018-04-22T13:37:38.721Z,36.18
2018-04-22T13:38:45.495Z,36.38
2018-04-22T13:39:52.233Z,36.69
2018-04-22T13:40:59.833Z,36.75
2018-04-22T13:42:05.851Z,36.86
2018-04-22T13:43:12.970Z,36.98
2018-04-22T13:44:18.988Z,36.90
2018-04-22T13:45:25.318Z,36.82
2018-04-22T13:46:32.147Z,36.98
2018-04-22T13:47:38.189Z,37.09
2018-04-22T13:48:44.110Z,37.10
2018-04-22T13:49:50.339Z,37.31
2018-04-22T13:51:00.390Z,37.28
2018-04-22T13:52:08.054Z,37.31
2018-04-22T13:53:15.836Z,37.41
2018-04-22T13:54:21.960Z,37.59
2018-04-22T13:55:28.213Z,37.51
2018-04-22T13:56:36.408Z,37.51
2018-04-22T13:57:42.618Z,37.37
2018-04-22T13:58:48.709Z,37.20
2018-04-22T13:59:55.324Z,37.15
2018-04-22T14:01:04.957Z,37.09
2018-04-22T14:02:12.886Z,37.03
2018-04-22T14:03:21.070Z,37.12
2018-04-22T14:04:27.756Z,37.05
2018-04-22T14:05:34.751Z,36.96
2018-04-22T14:06:41.588Z,36.87
2018-04-22T14:07:48.834Z,36.64
2018-04-22T14:08:55.146Z,36.49
2018-04-22T14:10:03.307Z,36.41
2018-04-22T14:11:10.746Z,36.16
2018-04-22T14:12:20.127Z,36.30
2018-04-22T14:13:26.204Z,36.39
2018-04-22T14:14:32.432Z,36.43
2018-04-22T14:15:38.453Z,36.30
2018-04-22T14:16:44.961Z,36.32
2018-04-22T14:17:51.029Z,36.38
2018-04-22T14:18:57.096Z,36.62